Sloman Herakles — V2FY4 — position and weather

sailwx.info

Track history (hours):
 
Tides and Currents Weather Stations Pressure Air Temp Water Temp Dewpoint Dewpoint Depression Visibility Wind Speed Wind Dir Waves Ship Positions

Sloman Herakles

Last reported at 2015-Apr-19 12:24 UTC. Time now 2015-Apr-21 09:45 UTC.
Position N 44°05' W 076°25'.

Length 145 m; draft 8 m.

Type: Ship (hazmat cat C). MMSI: 305851000.

Date/timePositionNaut miles runAvg speedWind from/ knotsBaromVisibWave heightAir tempDewpointWater temp
2015-Apr-19 12:24N 44°05' W 076°25'0 0.1
2015-Apr-19 11:34N 44°05' W 076°25'15 2.1
2015-Apr-19 04:32N 44°14' W 076°08'103 6.7
2015-Apr-18 13:14N 45°14' W 074°11'7 8.5
2015-Apr-18 12:26N 45°14' W 074°01'6 6.8
2015-Apr-18 11:33N 45°18' W 073°56'1 0.8
2015-Apr-18 10:33N 45°19' W 073°55'2 2.3
2015-Apr-18 09:33N 45°21' W 073°53'9 8.5
2015-Apr-18 08:33N 45°25' W 073°42'6 5.3
2015-Apr-18 07:27N 45°24' W 073°34'52 3.7
2015-Apr-17 17:21N 46°09' W 072°57'911.5
2015-Apr-17 16:33N 46°14' W 072°46'10 9.6
2015-Apr-17 15:33N 46°19' W 072°34'6 5.9
2015-Apr-17 14:33N 46°23' W 072°28'1010.0
2015-Apr-17 13:33N 46°28' W 072°15'1110.2
2015-Apr-17 12:28N 46°35' W 072°02'  
Track history (hours):
 
Tides and Currents Weather Stations Pressure Air Temp Water Temp Dewpoint Dewpoint Depression Visibility Wind Speed Wind Dir Waves Ship Positions

Sloman Herakles

Last reported at 2015-Apr-19 12:24 UTC. Time now 2015-Apr-21 09:45 UTC.
Position N 44°05' W 076°25'.

Length 145 m; draft 8 m.

Type: Ship (hazmat cat C). MMSI: 305851000.

Date/timePositionNaut miles runAvg speedWind from/ knotsBaromVisibWave heightAir tempDewpointWater temp
2015-Apr-19 12:24N 44°05' W 076°25'0 0.1
2015-Apr-19 11:34N 44°05' W 076°25'15 2.1
2015-Apr-19 04:32N 44°14' W 076°08'103 6.7
2015-Apr-18 13:14N 45°14' W 074°11'7 8.5
2015-Apr-18 12:26N 45°14' W 074°01'6 6.8
2015-Apr-18 11:33N 45°18' W 073°56'1 0.8
2015-Apr-18 10:33N 45°19' W 073°55'2 2.3
2015-Apr-18 09:33N 45°21' W 073°53'9 8.5
2015-Apr-18 08:33N 45°25' W 073°42'6 5.3
2015-Apr-18 07:27N 45°24' W 073°34'52 3.7
2015-Apr-17 17:21N 46°09' W 072°57'911.5
2015-Apr-17 16:33N 46°14' W 072°46'10 9.6
2015-Apr-17 15:33N 46°19' W 072°34'6 5.9
2015-Apr-17 14:33N 46°23' W 072°28'1010.0
2015-Apr-17 13:33N 46°28' W 072°15'1110.2
2015-Apr-17 12:28N 46°35' W 072°02'  

Dump ship's entire track history